Time;durP1;ratioP1;P1;durP2;ratioP2;P2;SDS_P1;SDS_P2;PMS_P1;PMS_P2;Temp;Humidity;BMP_temperature;BMP_pressure;BME280_temperature;BME280_humidity;BME280_pressure;Samples;Min_cycle;Max_cycle;Signal;HPM_P1;HPM_P2
2023/11/11 00:00:11;;;;;;;4.80;2.73;;;7.00;98.30;;;;;;775947;185;26518;-88
2023/11/11 00:02:37;;;;;;;4.73;2.37;;;7.00;98.30;;;;;;775546;185;28080;-88
2023/11/11 00:05:04;;;;;;;3.40;2.27;;;6.90;98.10;;;;;;775352;185;26469;-89
2023/11/11 00:07:30;;;;;;;4.17;2.23;;;7.00;98.70;;;;;;775170;182;26470;-88
2023/11/11 00:09:57;;;;;;;1.73;1.60;;;7.10;98.80;;;;;;775648;182;26490;-88
2023/11/11 00:12:24;;;;;;;4.00;2.70;;;7.00;98.20;;;;;;776307;182;26474;-88
2023/11/11 00:14:51;;;;;;;10.57;4.80;;;7.00;98.40;;;;;;776563;186;26456;-88
2023/11/11 00:17:17;;;;;;;3.80;2.03;;;6.90;98.30;;;;;;776678;182;26819;-88
2023/11/11 00:19:44;;;;;;;4.83;2.40;;;6.90;98.30;;;;;;776916;183;26479;-88
2023/11/11 00:22:11;;;;;;;3.27;2.50;;;6.90;98.10;;;;;;776724;182;26493;-88
2023/11/11 00:24:37;;;;;;;7.67;4.10;;;6.90;98.20;;;;;;776641;183;26466;-88
2023/11/11 00:27:03;;;;;;;9.73;5.53;;;6.90;98.30;;;;;;776619;183;26470;-88
2023/11/11 00:29:30;;;;;;;4.33;2.27;;;7.00;98.40;;;;;;776820;183;26489;-88
2023/11/11 00:31:57;;;;;;;3.10;2.40;;;7.00;98.40;;;;;;777968;183;26485;-88
2023/11/11 00:34:23;;;;;;;5.20;3.63;;;7.00;98.40;;;;;;778788;184;27003;-89
2023/11/11 00:36:51;;;;;;;10.20;4.83;;;7.00;98.30;;;;;;778256;182;26502;-88
2023/11/11 00:39:16;;;;;;;3.30;2.70;;;7.10;98.50;;;;;;777858;185;26488;-89
2023/11/11 00:41:43;;;;;;;5.10;3.70;;;7.00;98.30;;;;;;777537;185;26486;-89
2023/11/11 00:44:09;;;;;;;4.53;3.10;;;7.00;98.30;;;;;;777318;185;26493;-89
2023/11/11 00:46:47;;;;;;;7.03;4.27;;;7.00;98.30;;;;;;777426;185;26469;-89
2023/11/11 00:49:14;;;;;;;8.37;5.10;;;7.00;98.30;;;;;;777516;183;26488;-89
2023/11/11 00:51:40;;;;;;;9.07;5.90;;;7.10;98.80;;;;;;776809;184;26471;-88
2023/11/11 00:54:13;;;;;;;7.33;5.67;;;7.10;98.50;;;;;;777048;183;26504;-89
2023/11/11 00:56:39;;;;;;;8.50;6.57;;;7.10;98.50;;;;;;776588;185;26482;-89
2023/11/11 00:59:06;;;;;;;20.43;13.80;;;7.20;98.50;;;;;;776715;185;26558;-88
2023/11/11 01:02:00;;;;;;;23.40;14.07;;;7.20;98.50;;;;;;776764;185;26474;-90
2023/11/11 01:04:27;;;;;;;19.63;13.60;;;7.30;98.60;;;;;;776399;185;26481;-88
2023/11/11 01:06:54;;;;;;;22.07;14.70;;;7.30;98.60;;;;;;776459;184;26474;-89
2023/11/11 01:09:20;;;;;;;27.37;17.20;;;7.30;98.50;;;;;;776192;183;26490;-89
2023/11/11 01:11:47;;;;;;;23.97;16.33;;;7.40;98.60;;;;;;776146;185;26482;-89
2023/11/11 01:14:31;;;;;;;24.50;16.93;;;7.40;98.30;;;;;;776134;182;27056;-89
2023/11/11 01:17:00;;;;;;;30.13;20.57;;;7.40;98.40;;;;;;776425;185;26468;-89
2023/11/11 01:19:26;;;;;;;31.07;19.87;;;7.50;98.40;;;;;;776258;186;26494;-89
2023/11/11 01:21:53;;;;;;;32.37;20.30;;;7.50;98.50;;;;;;776310;185;26477;-89
2023/11/11 01:24:19;;;;;;;31.93;21.47;;;7.50;98.30;;;;;;776166;182;26477;-90
2023/11/11 01:26:46;;;;;;;38.23;23.63;;;7.50;98.30;;;;;;776014;185;27047;-89
2023/11/11 01:29:13;;;;;;;29.03;21.03;;;7.60;98.40;;;;;;775919;185;26473;-89
2023/11/11 01:31:39;;;;;;;35.03;23.37;;;7.60;98.40;;;;;;775800;185;26474;-90
2023/11/11 01:34:07;;;;;;;30.80;22.47;;;7.70;98.50;;;;;;776077;186;26465;-89
2023/11/11 01:36:36;;;;;;;30.77;22.87;;;7.60;98.30;;;;;;775957;186;26490;-89
2023/11/11 01:39:04;;;;;;;36.17;23.97;;;7.70;98.40;;;;;;776213;185;26549;-89
2023/11/11 01:41:29;;;;;;;32.73;23.87;;;7.70;98.40;;;;;;775649;182;26474;-88
2023/11/11 01:43:56;;;;;;;36.50;24.57;;;7.70;98.30;;;;;;777553;183;27024;-88
2023/11/11 01:46:23;;;;;;;39.33;25.90;;;7.70;98.30;;;;;;777813;184;26487;-89
2023/11/11 01:48:49;;;;;;;39.80;27.90;;;7.70;98.40;;;;;;777029;185;26517;-88
2023/11/11 01:51:17;;;;;;;52.87;32.97;;;7.70;98.40;;;;;;776981;182;26522;-89
2023/11/11 01:53:44;;;;;;;43.07;27.63;;;7.70;98.30;;;;;;776615;182;26496;-89
2023/11/11 01:56:13;;;;;;;41.77;29.60;;;7.70;98.40;;;;;;776881;184;26482;-89
2023/11/11 01:58:39;;;;;;;50.67;33.07;;;7.70;98.40;;;;;;776684;182;26494;-89
2023/11/11 02:01:04;;;;;;;73.50;41.07;;;7.70;98.30;;;;;;776840;184;26489;-89
2023/11/11 02:03:40;;;;;;;72.17;41.57;;;7.70;98.20;;;;;;776238;182;26512;-88
2023/11/11 02:06:14;;;;;;;63.17;37.17;;;7.70;98.20;;;;;;776218;184;26488;-88
2023/11/11 02:08:40;;;;;;;54.87;31.03;;;7.60;98.20;;;;;;778002;181;27058;-88
2023/11/11 02:11:08;;;;;;;41.27;29.10;;;7.70;98.20;;;;;;780362;183;26522;-88
2023/11/11 02:13:47;;;;;;;44.07;30.53;;;7.70;98.10;;;;;;779959;184;26478;-88
2023/11/11 02:16:14;;;;;;;45.80;32.20;;;7.60;98.00;;;;;;779975;184;26457;-88
2023/11/11 02:18:40;;;;;;;70.60;40.83;;;7.60;97.90;;;;;;779787;183;26452;-88
2023/11/11 02:24:04;;;;;;;66.40;36.97;;;7.60;98.00;;;;;;767124;187;26556;-88
2023/11/11 02:26:52;;;;;;;51.10;30.83;;;7.50;98.00;;;;;;774538;182;26507;-88
2023/11/11 02:29:22;;;;;;;37.67;23.73;;;7.50;98.00;;;;;;774724;182;26998;-89
2023/11/11 02:34:46;;;;;;;23.50;17.50;;;7.50;97.90;;;;;;691212;188;26566;-89
2023/11/11 02:37:16;;;;;;;32.40;21.00;;;7.60;97.80;;;;;;751213;190;27098;-88
2023/11/11 02:39:53;;;;;;;24.33;15.33;;;7.50;97.70;;;;;;751257;187;26534;-89
2023/11/11 02:45:06;;;;;;;21.63;14.80;;;7.60;97.60;;;;;;755977;181;26492;-91
2023/11/11 02:47:38;;;;;;;23.83;15.27;;;7.60;97.50;;;;;;739013;185;26597;-90
2023/11/11 02:50:15;;;;;;;25.67;16.00;;;7.60;97.60;;;;;;752567;178;26531;-91
2023/11/11 02:55:23;;;;;;;26.80;17.90;;;7.60;97.60;;;;;;752329;189;28091;-88
2023/11/11 02:57:59;;;;;;;22.90;15.53;;;7.70;97.50;;;;;;739468;191;26626;-89
2023/11/11 03:00:40;;;;;;;25.13;17.10;;;7.70;97.20;;;;;;752025;187;26625;-89
2023/11/11 03:03:25;;;;;;;27.13;17.37;;;7.70;97.10;;;;;;770082;175;27034;-90
2023/11/11 03:06:05;;;;;;;26.17;17.60;;;7.70;97.10;;;;;;779431;183;26532;-89
2023/11/11 03:08:54;;;;;;;29.50;18.53;;;7.60;97.10;;;;;;765631;184;26519;-91
2023/11/11 03:11:30;;;;;;;34.33;19.53;;;7.60;97.20;;;;;;773505;184;26554;-89
2023/11/11 03:14:16;;;;;;;39.03;22.60;;;7.60;97.20;;;;;;779890;183;26492;-90
2023/11/11 03:16:43;;;;;;;31.23;20.00;;;7.50;97.30;;;;;;785839;178;26480;-86
2023/11/11 03:19:09;;;;;;;30.47;19.63;;;7.50;97.30;;;;;;789653;182;27006;-87
2023/11/11 03:21:36;;;;;;;38.77;21.73;;;7.50;97.30;;;;;;789558;182;26619;-86
2023/11/11 03:24:03;;;;;;;52.07;29.43;;;7.50;97.30;;;;;;791744;181;26469;-87
2023/11/11 03:26:29;;;;;;;42.87;24.33;;;7.60;97.60;;;;;;791963;181;26468;-87
2023/11/11 03:28:56;;;;;;;30.73;20.90;;;7.60;97.40;;;;;;789264;182;26987;-88
2023/11/11 03:31:22;;;;;;;38.70;24.13;;;7.70;97.30;;;;;;789610;182;26482;-89
2023/11/11 03:33:49;;;;;;;32.77;20.27;;;7.70;97.40;;;;;;789574;178;26998;-87
2023/11/11 03:36:15;;;;;;;27.40;18.20;;;7.60;97.10;;;;;;788392;182;26485;-87
2023/11/11 03:38:42;;;;;;;32.60;18.47;;;7.60;97.10;;;;;;788417;178;27068;-87
2023/11/11 03:41:09;;;;;;;29.23;17.20;;;7.60;96.90;;;;;;788539;182;26556;-88
2023/11/11 03:43:36;;;;;;;33.27;18.57;;;7.60;96.80;;;;;;788702;182;27005;-87
2023/11/11 03:46:03;;;;;;;26.33;16.73;;;7.50;96.90;;;;;;788135;182;26482;-87
2023/11/11 03:48:29;;;;;;;22.87;14.93;;;7.50;97.20;;;;;;788127;182;26473;-88
2023/11/11 03:50:56;;;;;;;26.47;14.30;;;7.50;97.00;;;;;;788411;182;27011;-87
2023/11/11 03:53:23;;;;;;;22.50;14.00;;;7.50;96.80;;;;;;788230;182;26475;-87
2023/11/11 03:55:49;;;;;;;20.63;13.57;;;7.60;96.90;;;;;;788314;182;27094;-88
2023/11/11 03:58:16;;;;;;;17.40;10.20;;;7.60;96.50;;;;;;788223;182;26483;-87
2023/11/11 04:00:44;;;;;;;22.90;13.10;;;7.60;96.60;;;;;;788174;182;27027;-87
2023/11/11 04:03:10;;;;;;;18.20;11.10;;;7.60;96.50;;;;;;788716;181;26465;-88
2023/11/11 04:05:36;;;;;;;19.17;10.27;;;7.60;96.30;;;;;;788111;182;26992;-87
2023/11/11 04:08:03;;;;;;;17.63;10.27;;;7.60;96.40;;;;;;790861;180;26468;-87
2023/11/11 04:10:30;;;;;;;16.23;10.13;;;7.60;96.40;;;;;;790456;181;26449;-89
2023/11/11 04:12:57;;;;;;;12.53;8.13;;;7.60;96.40;;;;;;789675;182;26497;-87
2023/11/11 04:15:23;;;;;;;16.37;9.23;;;7.60;96.20;;;;;;789410;180;26453;-86
2023/11/11 04:17:50;;;;;;;13.63;7.77;;;7.50;96.20;;;;;;789285;182;26482;-87
2023/11/11 04:20:17;;;;;;;14.60;7.80;;;7.50;96.00;;;;;;789330;182;26478;-87
2023/11/11 04:22:43;;;;;;;13.30;7.17;;;7.50;96.00;;;;;;789237;182;26451;-87
2023/11/11 04:25:10;;;;;;;10.30;7.30;;;7.50;96.20;;;;;;788755;182;26452;-87
2023/11/11 04:27:36;;;;;;;11.97;7.50;;;7.50;96.40;;;;;;788619;179;26481;-88
2023/11/11 04:30:06;;;;;;;11.73;6.70;;;7.50;96.30;;;;;;788781;182;26786;-87
2023/11/11 04:32:31;;;;;;;12.63;7.50;;;7.50;96.40;;;;;;788671;180;26456;-87
2023/11/11 04:34:58;;;;;;;14.47;7.50;;;7.50;96.30;;;;;;788687;182;27046;-87
2023/11/11 04:37:24;;;;;;;13.27;6.70;;;7.50;96.10;;;;;;788662;182;26514;-88
2023/11/11 04:39:55;;;;;;;12.37;6.73;;;7.50;96.10;;;;;;789350;182;26499;-88
2023/11/11 04:42:18;;;;;;;10.77;6.67;;;7.50;96.20;;;;;;788837;182;26490;-86
2023/11/11 04:44:45;;;;;;;11.83;6.27;;;7.60;96.20;;;;;;788874;182;26476;-86
2023/11/11 04:47:12;;;;;;;8.60;5.47;;;7.60;95.90;;;;;;789139;179;26464;-90
2023/11/11 04:49:38;;;;;;;9.30;5.83;;;7.60;95.80;;;;;;790438;177;26442;-88
2023/11/11 04:52:05;;;;;;;9.97;5.13;;;7.60;95.70;;;;;;789757;178;26453;-90
2023/11/11 04:54:31;;;;;;;12.33;5.63;;;7.50;95.60;;;;;;789666;182;27064;-90
2023/11/11 04:57:00;;;;;;;7.77;5.67;;;7.50;95.70;;;;;;789543;181;26469;-88
2023/11/11 04:59:26;;;;;;;7.07;5.27;;;7.60;95.60;;;;;;789458;178;26558;-88
2023/11/11 05:01:53;;;;;;;7.40;4.70;;;7.60;95.90;;;;;;789680;182;26469;-88
2023/11/11 05:04:22;;;;;;;9.00;5.07;;;7.60;95.70;;;;;;779686;177;26490;-91
2023/11/11 05:09:23;;;;;;;11.33;4.33;;;7.60;95.90;;;;;;789763;182;26461;-90
2023/11/11 05:11:49;;;;;;;6.83;3.67;;;7.50;95.80;;;;;;788318;182;26990;-88
2023/11/11 05:14:18;;;;;;;7.97;4.27;;;7.60;95.70;;;;;;788017;182;26453;-89
2023/11/11 05:16:50;;;;;;;9.37;4.03;;;7.60;95.70;;;;;;787885;182;26488;-89
2023/11/11 05:19:09;;;;;;;9.33;3.80;;;7.60;95.90;;;;;;789796;180;26493;-89
2023/11/11 05:21:36;;;;;;;11.37;4.47;;;7.60;95.80;;;;;;789880;180;26456;-89
2023/11/11 05:24:02;;;;;;;5.30;4.20;;;7.60;96.00;;;;;;789559;178;27015;-89
2023/11/11 05:26:30;;;;;;;9.00;3.53;;;7.60;95.90;;;;;;791130;178;26472;-91
2023/11/11 05:28:55;;;;;;;10.40;4.43;;;7.60;95.80;;;;;;791268;178;26485;-91
2023/11/11 05:31:23;;;;;;;9.33;5.20;;;7.60;95.70;;;;;;790624;182;26478;-89
2023/11/11 05:33:50;;;;;;;7.07;3.90;;;7.60;95.80;;;;;;789537;182;26466;-89
2023/11/11 05:36:19;;;;;;;8.27;4.23;;;7.60;95.60;;;;;;789203;182;26468;-89
2023/11/11 05:38:43;;;;;;;10.70;4.07;;;7.60;95.70;;;;;;788899;178;27019;-90
2023/11/11 05:41:10;;;;;;;8.20;4.37;;;7.60;95.80;;;;;;789087;182;26573;-89
2023/11/11 05:43:37;;;;;;;8.97;4.03;;;7.60;95.80;;;;;;789298;182;27014;-89
2023/11/11 05:46:03;;;;;;;5.40;4.10;;;7.50;95.50;;;;;;789461;182;26525;-89
2023/11/11 05:48:30;;;;;;;8.80;4.10;;;7.50;95.40;;;;;;789033;178;26461;-89
2023/11/11 05:50:57;;;;;;;8.30;4.40;;;7.50;95.50;;;;;;788828;182;26455;-89
2023/11/11 05:53:23;;;;;;;7.50;4.27;;;7.50;95.30;;;;;;788686;182;27036;-89
2023/11/11 05:55:50;;;;;;;10.20;6.10;;;7.50;95.20;;;;;;788282;178;26494;-89
2023/11/11 05:58:16;;;;;;;12.70;5.67;;;7.50;95.20;;;;;;788303;182;26988;-89
2023/11/11 06:00:43;;;;;;;8.97;6.27;;;7.50;95.50;;;;;;788136;182;26492;-88
2023/11/11 06:03:09;;;;;;;9.33;6.03;;;7.40;95.30;;;;;;787997;178;26465;-88
2023/11/11 06:05:36;;;;;;;10.33;6.03;;;7.40;95.20;;;;;;787971;178;26490;-89
2023/11/11 06:08:03;;;;;;;12.27;8.03;;;7.40;95.30;;;;;;787704;182;26461;-88
2023/11/11 06:10:30;;;;;;;10.63;7.10;;;7.40;95.40;;;;;;787797;178;26453;-87
2023/11/11 06:12:59;;;;;;;14.43;8.13;;;7.30;95.20;;;;;;787513;178;27050;-87
2023/11/11 06:15:25;;;;;;;11.53;8.33;;;7.30;95.40;;;;;;787386;182;26999;-89
2023/11/11 06:18:07;;;;;;;11.93;7.67;;;7.20;95.50;;;;;;787426;182;27027;-89
2023/11/11 06:20:36;;;;;;;12.63;9.10;;;7.10;95.60;;;;;;788043;182;26449;-88
2023/11/11 06:23:00;;;;;;;14.63;9.60;;;7.10;95.80;;;;;;787803;181;26453;-88
2023/11/11 06:25:27;;;;;;;16.27;9.53;;;7.10;95.90;;;;;;789365;178;26502;-91
2023/11/11 06:27:54;;;;;;;15.60;9.67;;;7.00;96.00;;;;;;790428;179;26501;-91
2023/11/11 06:30:20;;;;;;;19.93;11.07;;;6.90;96.00;;;;;;791109;179;26457;-88
2023/11/11 06:32:50;;;;;;;15.10;11.57;;;6.90;96.20;;;;;;790162;182;26453;-88
2023/11/11 06:35:13;;;;;;;18.40;11.60;;;6.90;96.20;;;;;;789353;181;27028;-90
2023/11/11 06:37:40;;;;;;;17.93;10.10;;;6.90;96.30;;;;;;789516;182;26484;-89
2023/11/11 06:40:08;;;;;;;20.67;11.57;;;6.80;96.20;;;;;;788931;182;26995;-88
2023/11/11 06:42:34;;;;;;;20.40;12.00;;;6.90;96.40;;;;;;788808;182;26464;-89
2023/11/11 06:45:01;;;;;;;17.07;10.90;;;6.80;96.30;;;;;;788880;178;26481;-88
2023/11/11 06:47:28;;;;;;;15.47;10.93;;;6.90;96.40;;;;;;788584;182;26469;-88
2023/11/11 06:49:54;;;;;;;16.47;10.00;;;6.90;96.40;;;;;;788224;182;26994;-88
2023/11/11 06:52:20;;;;;;;16.50;10.70;;;6.90;96.30;;;;;;787933;182;26478;-88
2023/11/11 06:54:47;;;;;;;18.60;10.17;;;6.90;96.40;;;;;;787612;182;26474;-88
2023/11/11 06:57:13;;;;;;;14.80;9.63;;;6.90;96.30;;;;;;787480;178;26514;-87
2023/11/11 06:59:40;;;;;;;16.33;9.47;;;7.00;96.20;;;;;;787602;180;26481;-87
2023/11/11 07:02:07;;;;;;;17.03;9.13;;;7.00;95.80;;;;;;787851;182;26987;-87
2023/11/11 07:04:33;;;;;;;14.27;9.07;;;7.00;95.70;;;;;;787705;178;26449;-87
2023/11/11 07:07:00;;;;;;;16.23;10.43;;;7.00;95.60;;;;;;787268;182;27068;-88
2023/11/11 07:09:26;;;;;;;17.47;9.33;;;7.00;95.50;;;;;;787395;182;26449;-87
2023/11/11 07:11:53;;;;;;;19.03;9.40;;;7.00;95.70;;;;;;787563;178;26482;-87
2023/11/11 07:14:20;;;;;;;18.23;10.90;;;7.00;95.40;;;;;;787473;182;26453;-87
2023/11/11 07:16:46;;;;;;;16.27;9.70;;;7.00;95.30;;;;;;787357;182;26493;-87
2023/11/11 07:19:13;;;;;;;15.90;9.73;;;7.10;95.30;;;;;;787595;178;26457;-87
2023/11/11 07:21:40;;;;;;;18.90;9.80;;;7.10;95.10;;;;;;787638;182;26463;-87
2023/11/11 07:24:06;;;;;;;15.47;9.53;;;7.10;95.00;;;;;;787438;181;26468;-88
2023/11/11 07:26:33;;;;;;;17.67;9.07;;;7.10;95.20;;;;;;787442;182;27032;-87
2023/11/11 07:28:59;;;;;;;17.00;10.40;;;7.10;95.00;;;;;;787369;181;26472;-87
2023/11/11 07:31:26;;;;;;;16.13;10.10;;;7.10;94.80;;;;;;787443;182;26474;-88
2023/11/11 07:33:54;;;;;;;19.43;11.27;;;7.10;94.80;;;;;;787546;182;26494;-88
2023/11/11 07:36:19;;;;;;;20.30;10.80;;;7.00;94.80;;;;;;787472;178;26503;-89
2023/11/11 07:38:46;;;;;;;18.23;10.07;;;7.00;94.80;;;;;;787646;178;26466;-88
2023/11/11 07:41:12;;;;;;;17.47;9.93;;;6.90;94.70;;;;;;789420;180;26460;-88
2023/11/11 07:43:39;;;;;;;22.77;11.80;;;6.90;94.80;;;;;;790455;181;27002;-87
2023/11/11 07:46:05;;;;;;;20.93;11.97;;;6.90;94.80;;;;;;790207;182;26480;-88
2023/11/11 07:48:33;;;;;;;20.87;12.23;;;6.80;95.00;;;;;;789895;182;26477;-88
2023/11/11 07:51:01;;;;;;;24.00;12.17;;;6.80;95.00;;;;;;789646;182;26453;-87
2023/11/11 07:53:26;;;;;;;23.37;10.90;;;6.90;94.90;;;;;;789119;182;27248;-89
2023/11/11 07:55:53;;;;;;;26.83;12.90;;;6.90;94.80;;;;;;788839;182;26504;-87
2023/11/11 07:58:20;;;;;;;21.37;11.30;;;6.90;95.00;;;;;;788886;182;26475;-87
2023/11/11 08:00:47;;;;;;;23.67;12.77;;;7.00;94.70;;;;;;788413;178;26461;-87
2023/11/11 08:03:12;;;;;;;22.93;11.87;;;7.00;94.70;;;;;;788499;181;26453;-88
2023/11/11 08:05:39;;;;;;;20.23;11.70;;;7.00;94.70;;;;;;788524;182;26493;-88
2023/11/11 08:08:06;;;;;;;18.83;10.63;;;7.00;94.80;;;;;;788511;182;26463;-88
2023/11/11 08:10:32;;;;;;;22.37;10.73;;;7.00;94.50;;;;;;788640;178;26453;-87
2023/11/11 08:12:59;;;;;;;17.10;10.07;;;7.10;94.50;;;;;;788613;182;26448;-88
2023/11/11 08:15:25;;;;;;;22.43;10.83;;;7.20;94.70;;;;;;788573;182;26474;-91
2023/11/11 08:17:52;;;;;;;24.27;10.27;;;7.30;94.30;;;;;;788382;178;26461;-86
2023/11/11 08:20:19;;;;;;;20.60;11.77;;;7.30;94.00;;;;;;788040;178;26464;-87
2023/11/11 08:22:45;;;;;;;15.90;9.00;;;7.40;94.30;;;;;;788126;178;27028;-87
2023/11/11 08:25:13;;;;;;;17.77;10.87;;;7.40;94.10;;;;;;787621;178;27640;-88
2023/11/11 08:27:39;;;;;;;20.50;10.73;;;7.50;93.90;;;;;;787258;182;26500;-87
2023/11/11 08:30:07;;;;;;;18.43;10.00;;;7.50;93.50;;;;;;787475;178;26507;-87
2023/11/11 08:32:34;;;;;;;19.40;10.00;;;7.50;93.60;;;;;;787357;182;26467;-87
2023/11/11 08:35:00;;;;;;;22.50;10.77;;;7.60;93.60;;;;;;787360;182;26995;-86
2023/11/11 08:37:27;;;;;;;24.93;10.83;;;7.60;93.90;;;;;;788007;178;26468;-87
2023/11/11 08:39:53;;;;;;;15.57;9.57;;;7.70;93.90;;;;;;788575;178;26459;-87
2023/11/11 08:42:20;;;;;;;15.53;9.83;;;7.70;93.00;;;;;;788556;178;26473;-88
2023/11/11 08:44:49;;;;;;;18.37;9.33;;;7.80;93.20;;;;;;788611;178;26987;-87
2023/11/11 08:47:13;;;;;;;20.37;9.57;;;7.80;93.00;;;;;;788294;178;26469;-88
2023/11/11 08:49:40;;;;;;;18.20;8.63;;;7.90;93.10;;;;;;790049;182;26510;-89
2023/11/11 08:52:06;;;;;;;17.10;10.03;;;8.00;92.80;;;;;;790522;177;26465;-91
2023/11/11 08:54:33;;;;;;;19.20;9.67;;;7.90;92.50;;;;;;792135;181;26445;-87
2023/11/11 08:57:06;;;;;;;16.80;9.00;;;8.00;93.00;;;;;;791040;178;26467;-88
2023/11/11 08:59:33;;;;;;;15.50;8.83;;;8.10;93.00;;;;;;790418;181;26460;-87
2023/11/11 09:02:00;;;;;;;13.17;8.53;;;8.20;92.50;;;;;;789286;180;26453;-86
2023/11/11 09:04:26;;;;;;;18.13;9.43;;;8.10;92.30;;;;;;791000;181;26545;-89
2023/11/11 09:06:53;;;;;;;16.60;9.37;;;8.20;92.20;;;;;;790305;178;26490;-88
2023/11/11 09:09:20;;;;;;;15.87;8.97;;;8.20;92.10;;;;;;790001;180;26470;-90
2023/11/11 09:11:49;;;;;;;17.23;9.30;;;8.30;91.80;;;;;;789135;180;26453;-87
2023/11/11 09:14:16;;;;;;;18.77;9.13;;;8.30;91.80;;;;;;788373;182;26487;-87
2023/11/11 09:25:06;;;;;;;15.23;7.80;;;8.40;91.40;;;;;;784328;183;26483;-89
2023/11/11 09:27:38;;;;;;;13.63;7.87;;;8.50;91.60;;;;;;794675;180;26510;-86
2023/11/11 09:30:10;;;;;;;12.73;7.70;;;8.50;91.30;;;;;;780978;183;26515;-86
2023/11/11 09:32:51;;;;;;;15.47;8.17;;;8.60;91.40;;;;;;798261;180;26495;-87
2023/11/11 09:35:27;;;;;;;16.13;8.00;;;8.60;91.70;;;;;;799623;179;26459;-87
2023/11/11 09:38:02;;;;;;;10.30;7.50;;;8.60;91.40;;;;;;783885;183;26495;-87
2023/11/11 09:40:34;;;;;;;17.23;8.10;;;8.70;91.20;;;;;;798339;177;26467;-86
2023/11/11 09:43:09;;;;;;;12.77;7.03;;;8.80;91.30;;;;;;798810;179;26999;-86
2023/11/11 09:45:39;;;;;;;14.03;7.23;;;8.80;90.40;;;;;;784000;183;26525;-86
2023/11/11 09:48:10;;;;;;;15.00;7.57;;;8.80;90.60;;;;;;795185;180;26490;-85
2023/11/11 09:50:43;;;;;;;13.60;7.33;;;8.70;90.90;;;;;;807433;176;26496;-87
2023/11/11 09:53:17;;;;;;;15.37;7.97;;;8.80;91.00;;;;;;822481;175;26394;-88
2023/11/11 09:55:59;;;;;;;12.57;7.13;;;8.90;91.40;;;;;;825065;174;26411;-88
2023/11/11 09:58:38;;;;;;;16.27;8.93;;;8.90;90.40;;;;;;823669;174;26479;-87
2023/11/11 10:01:04;;;;;;;13.93;7.47;;;9.10;90.90;;;;;;813224;173;26469;-88
2023/11/11 10:03:31;;;;;;;13.93;6.33;;;9.00;90.60;;;;;;811620;177;26436;-87
2023/11/11 10:05:58;;;;;;;12.73;7.60;;;9.20;90.70;;;;;;814632;175;26992;-88
2023/11/11 10:08:24;;;;;;;14.73;7.03;;;9.30;91.00;;;;;;813643;177;26434;-87
2023/11/11 10:10:52;;;;;;;9.17;5.63;;;9.50;90.40;;;;;;801638;176;26948;-87
2023/11/11 10:13:17;;;;;;;14.73;7.83;;;9.40;88.20;;;;;;798093;180;26462;-87
2023/11/11 10:15:44;;;;;;;15.77;9.27;;;9.30;90.80;;;;;;797857;180;27000;-87
2023/11/11 10:18:11;;;;;;;17.23;8.30;;;9.40;90.10;;;;;;797525;180;26479;-87
2023/11/11 10:20:38;;;;;;;13.33;6.67;;;9.30;88.80;;;;;;797708;177;26479;-87
2023/11/11 10:23:04;;;;;;;15.87;10.00;;;9.30;88.60;;;;;;797536;180;27024;-87
2023/11/11 10:25:31;;;;;;;14.17;8.97;;;9.30;90.30;;;;;;797242;180;26458;-87
2023/11/11 10:27:59;;;;;;;12.57;6.10;;;9.30;88.90;;;;;;797258;177;26476;-87
2023/11/11 10:30:24;;;;;;;17.67;9.83;;;9.40;87.60;;;;;;797066;177;26459;-87
2023/11/11 10:32:51;;;;;;;21.93;12.83;;;9.40;88.70;;;;;;797185;180;26467;-87
2023/11/11 10:35:18;;;;;;;18.23;7.43;;;9.40;87.20;;;;;;797092;180;26462;-87
2023/11/11 10:37:46;;;;;;;10.30;6.10;;;9.50;89.60;;;;;;797340;180;26471;-87
2023/11/11 10:40:14;;;;;;;10.43;5.30;;;9.50;87.70;;;;;;796802;177;26471;-88
2023/11/11 10:42:38;;;;;;;13.90;8.87;;;9.50;86.10;;;;;;796664;180;26458;-87
2023/11/11 10:45:05;;;;;;;21.37;12.37;;;9.30;86.50;;;;;;797003;180;26460;-86
2023/11/11 10:47:34;;;;;;;29.63;17.20;;;9.30;86.30;;;;;;797006;180;26462;-87
2023/11/11 10:49:58;;;;;;;8.33;5.07;;;9.40;89.90;;;;;;796691;177;27013;-87
2023/11/11 10:52:25;;;;;;;11.97;5.53;;;9.50;85.80;;;;;;796841;180;26471;-87
2023/11/11 10:54:54;;;;;;;12.13;5.00;;;9.70;86.00;;;;;;796923;180;26569;-87
2023/11/11 10:57:19;;;;;;;10.70;4.83;;;9.80;86.70;;;;;;795623;179;26468;-88
2023/11/11 10:59:46;;;;;;;10.77;4.30;;;9.90;83.40;;;;;;791832;181;26517;-87
2023/11/11 11:02:12;;;;;;;19.10;10.60;;;10.60;81.10;;;;;;790844;181;26793;-89
2023/11/11 11:04:39;;;;;;;17.97;9.77;;;11.20;79.50;;;;;;791183;181;26468;-88
2023/11/11 11:07:09;;;;;;;13.33;8.33;;;12.00;75.90;;;;;;791138;177;26456;-88
2023/11/11 11:09:38;;;;;;;15.70;9.63;;;12.50;72.40;;;;;;790362;181;26502;-89
2023/11/11 11:12:17;;;;;;;41.40;25.03;;;12.50;72.90;;;;;;791096;182;26445;-89
2023/11/11 11:14:44;;;;;;;76.77;39.90;;;12.90;71.20;;;;;;791281;182;26429;-89
2023/11/11 11:17:12;;;;;;;22.60;13.13;;;12.70;70.30;;;;;;793260;180;26474;-88
2023/11/11 11:19:53;;;;;;;35.87;18.23;;;12.60;71.90;;;;;;792548;181;26498;-89
2023/11/11 11:22:19;;;;;;;18.83;9.47;;;12.10;71.30;;;;;;792835;181;26455;-88
2023/11/11 11:24:46;;;;;;;15.87;8.27;;;11.10;75.30;;;;;;794394;177;26463;-88
2023/11/11 11:27:13;;;;;;;30.87;16.67;;;10.70;76.40;;;;;;794568;181;26471;-88
2023/11/11 11:29:40;;;;;;;69.87;36.73;;;10.60;76.00;;;;;;793240;177;26464;-87
2023/11/11 11:32:10;;;;;;;42.37;23.70;;;11.40;75.20;;;;;;790259;181;26456;-87
2023/11/11 11:34:40;;;;;;;29.47;15.07;;;11.20;73.80;;;;;;789652;180;26456;-86
2023/11/11 11:37:10;;;;;;;21.10;13.47;;;11.20;74.40;;;;;;789825;181;26729;-88
2023/11/11 11:39:56;;;;;;;67.83;31.50;;;11.10;75.30;;;;;;792352;181;26501;-86
2023/11/11 11:42:20;;;;;;;24.10;11.47;;;11.00;76.40;;;;;;791397;181;26471;-87
2023/11/11 11:44:55;;;;;;;17.77;8.97;;;11.00;75.30;;;;;;792711;181;26461;-87
2023/11/11 11:47:22;;;;;;;19.63;6.83;;;10.90;74.60;;;;;;792433;180;26456;-89
2023/11/11 11:49:49;;;;;;;23.20;11.97;;;10.70;76.00;;;;;;795014;181;26481;-89
2023/11/11 11:52:15;;;;;;;18.50;8.70;;;10.60;77.50;;;;;;793392;181;26843;-87
2023/11/11 11:54:42;;;;;;;29.90;14.27;;;10.40;77.30;;;;;;792387;181;26494;-88
2023/11/11 11:57:09;;;;;;;20.47;10.40;;;10.20;77.30;;;;;;792213;181;26464;-87
2023/11/11 11:59:35;;;;;;;12.67;7.17;;;10.10;78.30;;;;;;792250;181;27010;-87
2023/11/11 12:02:02;;;;;;;10.27;6.20;;;10.10;80.60;;;;;;792078;181;26484;-88
2023/11/11 12:04:29;;;;;;;7.70;4.00;;;10.00;79.80;;;;;;792098;181;26464;-87
2023/11/11 12:07:00;;;;;;;12.40;8.07;;;10.10;80.00;;;;;;790862;181;27064;-87
2023/11/11 12:09:33;;;;;;;12.10;5.23;;;10.10;79.70;;;;;;790765;181;26518;-88
2023/11/11 12:11:56;;;;;;;21.53;13.17;;;10.10;79.40;;;;;;786298;181;26457;-86
2023/11/11 12:14:22;;;;;;;10.93;5.93;;;10.70;80.30;;;;;;787575;181;27039;-87
2023/11/11 12:16:51;;;;;;;13.47;6.37;;;10.50;77.50;;;;;;789193;182;26453;-87
2023/11/11 12:19:16;;;;;;;11.37;6.47;;;10.50;76.80;;;;;;788875;179;26464;-87
2023/11/11 12:21:43;;;;;;;35.90;18.57;;;10.60;77.50;;;;;;789181;178;26457;-86
2023/11/11 12:24:11;;;;;;;40.63;20.93;;;11.10;76.30;;;;;;788868;181;27015;-86
2023/11/11 12:26:37;;;;;;;31.10;17.43;;;11.30;74.90;;;;;;789183;180;26465;-87
2023/11/11 12:29:04;;;;;;;34.93;18.47;;;11.30;76.10;;;;;;791884;179;26465;-87
2023/11/11 12:31:30;;;;;;;17.67;9.17;;;11.40;76.50;;;;;;788704;181;27095;-87
2023/11/11 12:33:57;;;;;;;103.27;52.97;;;11.80;70.70;;;;;;788365;181;26445;-87
2023/11/11 12:36:24;;;;;;;21.23;11.40;;;11.90;73.90;;;;;;788443;178;26464;-87
2023/11/11 12:38:51;;;;;;;13.63;7.10;;;12.00;71.40;;;;;;789532;180;26470;-88
2023/11/11 12:41:17;;;;;;;25.60;12.83;;;11.90;70.40;;;;;;793826;180;26467;-87
2023/11/11 12:43:43;;;;;;;11.97;6.53;;;12.40;70.30;;;;;;790377;180;26478;-88
2023/11/11 12:46:15;;;;;;;29.00;16.77;;;13.10;68.20;;;;;;790891;181;26541;-86
2023/11/11 12:48:40;;;;;;;8.90;4.30;;;13.20;65.10;;;;;;787408;181;27024;-88
2023/11/11 12:51:26;;;;;;;17.83;10.23;;;13.30;61.50;;;;;;788757;178;26510;-88
2023/11/11 12:53:53;;;;;;;27.97;15.90;;;14.30;61.30;;;;;;792615;180;27040;-86
2023/11/11 12:56:19;;;;;;;17.87;9.17;;;14.40;59.30;;;;;;788703;180;26453;-87
2023/11/11 12:58:45;;;;;;;11.03;5.80;;;14.60;58.60;;;;;;787956;180;27068;-88
2023/11/11 13:01:12;;;;;;;49.60;25.90;;;13.70;62.70;;;;;;786898;179;26481;-88
2023/11/11 13:03:43;;;;;;;12.83;7.30;;;12.70;65.90;;;;;;789368;181;26461;-87
2023/11/11 13:06:09;;;;;;;10.07;5.47;;;11.90;67.00;;;;;;787578;180;27035;-87
2023/11/11 13:08:36;;;;;;;34.27;16.67;;;11.30;72.10;;;;;;787167;182;26474;-87